Time;durP1;ratioP1;P1;durP2;ratioP2;P2;SDS_P1;SDS_P2;PMS_P1;PMS_P2;Temp;Humidity;BMP_temperature;BMP_pressure;BME280_temperature;BME280_humidity;BME280_pressure;Samples;Min_cycle;Max_cycle;Signal;HPM_P1;HPM_P2
2022/08/12 00:44:49;;;;;;;7.25;3.70;;;15.50;99.90;;;;;;5052354;28;20198;-78
2022/08/12 00:47:18;;;;;;;6.88;3.75;;;15.60;99.90;;;;;;5052450;28;20575;-77
2022/08/12 00:49:46;;;;;;;6.40;3.73;;;15.80;99.90;;;;;;5051990;28;20717;-78
2022/08/12 00:52:13;;;;;;;4.47;3.92;;;15.80;99.90;;;;;;5045060;28;20210;-78
2022/08/12 00:54:44;;;;;;;7.20;4.32;;;15.90;99.90;;;;;;5051130;28;20201;-78
2022/08/12 00:57:13;;;;;;;7.15;4.18;;;15.80;99.90;;;;;;5054247;28;20191;-78
2022/08/12 00:59:45;;;;;;;5.72;4.43;;;15.90;99.90;;;;;;5058848;28;20213;-78
2022/08/12 01:02:23;;;;;;;6.63;3.83;;;16.10;99.90;;;;;;5058748;28;20202;-78
2022/08/12 01:13:13;;;;;;;10.15;6.00;;;16.70;99.90;;;;;;5058870;28;20797;-78
2022/08/12 01:15:40;;;;;;;7.38;4.43;;;16.60;99.90;;;;;;5058972;28;20191;-78
2022/08/12 01:18:06;;;;;;;5.22;4.50;;;16.20;99.90;;;;;;5058597;28;20206;-78
2022/08/12 01:20:39;;;;;;;15.90;8.52;;;16.00;99.90;;;;;;5046026;28;20243;-78
2022/08/12 01:23:40;;;;;;;11.25;5.80;;;16.40;99.90;;;;;;5046978;28;20203;-78
2022/08/12 01:26:16;;;;;;;8.80;5.78;;;16.60;99.90;;;;;;5038775;28;20257;-78
2022/08/12 01:28:46;;;;;;;6.80;4.65;;;16.60;99.90;;;;;;5051061;28;20203;-78
2022/08/12 01:31:16;;;;;;;5.05;4.05;;;16.90;99.90;;;;;;5058481;28;20199;-78
2022/08/12 01:33:53;;;;;;;6.90;4.40;;;17.00;99.90;;;;;;5058951;28;20222;-78
2022/08/12 01:36:25;;;;;;;4.95;3.85;;;16.90;99.90;;;;;;5046289;28;20202;-78
2022/08/12 01:38:55;;;;;;;5.32;4.22;;;16.60;99.90;;;;;;5058940;28;20213;-78
2022/08/12 01:41:25;;;;;;;6.88;4.18;;;16.60;99.90;;;;;;5047268;28;20612;-78
2022/08/12 01:43:54;;;;;;;6.57;4.00;;;16.70;99.90;;;;;;5058666;28;20563;-78
2022/08/12 01:46:36;;;;;;;6.80;4.40;;;16.60;99.90;;;;;;5058229;28;20195;-78
2022/08/12 01:49:16;;;;;;;6.25;4.10;;;16.50;99.90;;;;;;5057679;28;20617;-78
2022/08/12 01:51:45;;;;;;;3.90;3.50;;;16.40;99.90;;;;;;5057845;28;20207;-78
2022/08/12 01:54:15;;;;;;;5.25;3.80;;;16.30;99.90;;;;;;5058463;28;20699;-78
2022/08/12 01:56:47;;;;;;;5.63;4.03;;;16.40;99.90;;;;;;5058278;28;20199;-78
2022/08/12 02:02:04;;;;;;;5.47;4.07;;;16.30;99.90;;;;;;5058100;28;20284;-78
2022/08/12 02:14:04;;;;;;;11.90;6.50;;;16.00;99.90;;;;;;5054993;28;20652;-70
2022/08/12 02:16:46;;;;;;;12.95;5.82;;;15.90;99.90;;;;;;5055322;28;20206;-70
2022/08/12 02:19:40;;;;;;;9.73;5.38;;;15.90;99.90;;;;;;5053563;28;20206;-70
2022/08/12 02:22:17;;;;;;;10.63;5.97;;;15.80;99.90;;;;;;5049342;28;20552;-70
2022/08/12 02:24:46;;;;;;;11.80;5.70;;;15.80;99.90;;;;;;5053413;28;20559;-70
2022/08/12 02:27:15;;;;;;;9.45;5.35;;;15.60;99.90;;;;;;5054519;28;20199;-69
2022/08/12 02:29:43;;;;;;;8.77;5.20;;;15.70;99.90;;;;;;5054549;28;20210;-69
2022/08/12 02:32:11;;;;;;;8.63;4.97;;;15.80;99.90;;;;;;5054726;28;20200;-70
2022/08/12 02:34:38;;;;;;;12.00;5.38;;;15.80;99.90;;;;;;5054917;28;20249;-70
2022/08/12 02:37:07;;;;;;;12.80;5.33;;;15.80;99.90;;;;;;5038937;28;20199;-69
2022/08/12 02:39:40;;;;;;;6.68;4.88;;;15.70;99.90;;;;;;5054664;28;20253;-69
2022/08/12 02:42:10;;;;;;;10.55;5.18;;;15.40;99.90;;;;;;5054132;28;20588;-69
2022/08/12 02:44:40;;;;;;;14.25;5.50;;;15.30;99.90;;;;;;5054383;28;20554;-69
2022/08/12 02:47:09;;;;;;;7.27;5.10;;;15.10;99.90;;;;;;5054045;28;20225;-70
2022/08/12 02:49:41;;;;;;;7.72;5.18;;;15.10;99.90;;;;;;5054199;28;20203;-69
2022/08/12 02:52:10;;;;;;;10.17;5.27;;;15.00;99.90;;;;;;5053869;28;20206;-70
2022/08/12 02:54:38;;;;;;;8.87;5.60;;;14.90;99.90;;;;;;5053906;28;20223;-69
2022/08/12 02:57:06;;;;;;;7.77;5.63;;;14.90;99.90;;;;;;5054099;28;20207;-69
2022/08/12 02:59:35;;;;;;;13.00;6.53;;;15.10;99.90;;;;;;5043300;28;20216;-69
2022/08/12 03:02:03;;;;;;;14.87;7.40;;;14.90;99.90;;;;;;5034140;28;20627;-69
2022/08/12 03:04:47;;;;;;;20.37;7.90;;;15.00;99.90;;;;;;5034387;28;20207;-69
2022/08/12 03:07:20;;;;;;;5.73;5.00;;;15.10;99.90;;;;;;5033564;28;20206;-69
2022/08/12 03:09:50;;;;;;;9.23;5.30;;;14.90;99.90;;;;;;5034874;28;20571;-69
2022/08/12 03:12:18;;;;;;;12.27;6.27;;;14.60;99.90;;;;;;5053927;28;20218;-69
2022/08/12 03:14:47;;;;;;;8.37;5.17;;;14.80;99.90;;;;;;5053693;28;20230;-69
2022/08/12 03:17:19;;;;;;;9.27;5.87;;;14.70;99.90;;;;;;5049443;28;20227;-69
2022/08/12 03:19:48;;;;;;;16.40;8.00;;;14.70;99.90;;;;;;5047850;28;20568;-69
2022/08/12 03:22:18;;;;;;;12.33;6.27;;;14.90;99.90;;;;;;5052709;28;20202;-69
2022/08/12 03:24:46;;;;;;;14.20;6.70;;;14.60;99.90;;;;;;5053693;28;20207;-69
2022/08/12 03:27:14;;;;;;;12.10;6.50;;;14.50;99.90;;;;;;5053810;28;20231;-69
2022/08/12 03:29:46;;;;;;;18.73;6.93;;;14.60;99.90;;;;;;5053276;28;20286;-69
2022/08/12 03:32:13;;;;;;;20.13;9.03;;;14.50;99.90;;;;;;5052514;28;20579;-69
2022/08/12 03:34:42;;;;;;;22.13;10.40;;;14.70;99.90;;;;;;5033644;28;20223;-69
2022/08/12 03:37:10;;;;;;;19.97;10.23;;;14.80;99.90;;;;;;5033334;28;20211;-70
2022/08/12 03:39:43;;;;;;;19.13;9.93;;;14.80;99.90;;;;;;5033694;28;20261;-69
2022/08/12 03:42:34;;;;;;;18.70;8.97;;;14.80;99.90;;;;;;5033379;28;20203;-70
2022/08/12 04:01:55;;;;;;;18.40;8.70;;;14.40;99.90;;;;;;5052885;28;20247;-69
2022/08/12 04:04:24;;;;;;;16.27;7.00;;;14.60;99.90;;;;;;5050623;28;20654;-69
2022/08/12 04:06:51;;;;;;;17.60;6.60;;;14.30;99.90;;;;;;5040751;28;20658;-70
2022/08/12 04:09:21;;;;;;;14.73;8.33;;;14.30;99.90;;;;;;5032907;28;20212;-70
2022/08/12 04:14:34;;;;;;;21.93;11.97;;;14.70;99.90;;;;;;5037626;28;20226;-69
2022/08/12 04:17:02;;;;;;;13.50;8.10;;;15.00;99.90;;;;;;5055869;28;20203;-69
2022/08/12 04:19:29;;;;;;;10.43;6.13;;;15.40;99.90;;;;;;5048506;28;20211;-70
2022/08/12 04:21:57;;;;;;;11.00;6.17;;;15.40;99.90;;;;;;5032337;28;20239;-70
2022/08/12 04:24:26;;;;;;;8.87;6.27;;;15.40;99.90;;;;;;5032573;28;20230;-70
2022/08/12 04:26:54;;;;;;;8.93;5.77;;;14.90;99.90;;;;;;5032816;28;20207;-69
2022/08/12 04:29:21;;;;;;;7.13;5.30;;;14.60;99.90;;;;;;5032596;28;20207;-70
2022/08/12 04:31:49;;;;;;;11.70;7.57;;;14.20;99.90;;;;;;5032297;28;20214;-70
2022/08/12 04:34:17;;;;;;;8.47;6.40;;;14.30;99.90;;;;;;5039441;28;20219;-70
2022/08/12 04:36:44;;;;;;;7.37;5.57;;;14.50;99.90;;;;;;5044243;28;20637;-70
2022/08/12 04:39:12;;;;;;;8.33;5.80;;;14.60;99.90;;;;;;5042417;28;20210;-70
2022/08/12 04:41:41;;;;;;;8.57;6.33;;;14.60;99.90;;;;;;5040873;28;20195;-69
2022/08/12 04:44:09;;;;;;;8.53;5.97;;;14.70;99.90;;;;;;5046818;28;20282;-69
2022/08/12 04:46:36;;;;;;;9.25;5.32;;;14.60;99.90;;;;;;5038491;28;20199;-70
2022/08/12 04:49:04;;;;;;;9.03;5.33;;;14.80;99.90;;;;;;5046207;28;20289;-70
2022/08/12 04:51:33;;;;;;;6.87;5.40;;;14.90;99.90;;;;;;5040345;28;20659;-67
2022/08/12 04:54:00;;;;;;;8.05;5.43;;;14.70;99.90;;;;;;5041638;28;20218;-70
2022/08/12 04:56:28;;;;;;;9.32;5.65;;;14.80;99.90;;;;;;5037748;28;20230;-71
2022/08/12 04:58:57;;;;;;;12.73;6.17;;;14.90;99.90;;;;;;5045956;28;20290;-71
2022/08/12 05:01:28;;;;;;;9.95;6.75;;;14.90;99.90;;;;;;5034558;28;20199;-71
2022/08/12 05:03:56;;;;;;;13.37;7.47;;;15.30;99.90;;;;;;5046752;28;20195;-71
2022/08/12 05:06:24;;;;;;;12.13;7.73;;;15.60;99.90;;;;;;5044795;28;20298;-70
2022/08/12 05:08:53;;;;;;;9.50;6.33;;;15.60;99.90;;;;;;5043793;28;20242;-71
2022/08/12 05:11:22;;;;;;;8.68;6.60;;;15.70;99.90;;;;;;5042323;28;20293;-70
2022/08/12 05:13:52;;;;;;;10.55;6.55;;;15.90;99.90;;;;;;5037131;28;20569;-70
2022/08/12 05:16:20;;;;;;;13.55;6.47;;;16.50;99.90;;;;;;5040325;28;20207;-70
2022/08/12 05:18:48;;;;;;;17.00;6.55;;;16.20;99.90;;;;;;5038517;28;20214;-70
2022/08/12 05:21:15;;;;;;;13.38;6.50;;;16.20;99.90;;;;;;5044698;28;20205;-70
2022/08/12 05:23:42;;;;;;;12.40;6.35;;;16.60;99.90;;;;;;5037557;28;20196;-71
2022/08/12 05:26:10;;;;;;;8.45;6.82;;;17.10;99.90;;;;;;5043834;28;20226;-70
2022/08/12 05:28:37;;;;;;;17.63;6.85;;;17.00;99.90;;;;;;5045626;28;20195;-70
2022/08/12 05:31:04;;;;;;;17.60;6.72;;;16.80;99.90;;;;;;5046477;28;20199;-70
2022/08/12 05:33:36;;;;;;;14.23;6.47;;;16.90;99.90;;;;;;5042875;28;20207;-70
2022/08/12 05:36:06;;;;;;;13.00;7.07;;;16.90;99.90;;;;;;5047155;28;20222;-70
2022/08/12 05:41:21;;;;;;;17.45;6.95;;;17.30;99.90;;;;;;5040165;28;20206;-70
2022/08/12 05:43:50;;;;;;;12.68;6.00;;;17.30;99.90;;;;;;5043501;28;20217;-70
2022/08/12 05:46:17;;;;;;;15.45;6.50;;;17.60;99.90;;;;;;5046886;28;20623;-70
2022/08/12 05:48:46;;;;;;;11.18;5.65;;;17.50;99.90;;;;;;5047142;28;20234;-70
2022/08/12 05:51:13;;;;;;;12.48;6.13;;;17.40;99.90;;;;;;5042988;28;20226;-70
2022/08/12 05:53:40;;;;;;;8.27;5.65;;;17.30;99.90;;;;;;5054518;28;20229;-70
2022/08/12 05:56:19;;;;;;;13.95;7.32;;;17.40;99.90;;;;;;5046100;28;20200;-70
2022/08/12 05:58:46;;;;;;;9.35;6.40;;;17.50;99.90;;;;;;5049172;28;20217;-70
2022/08/12 06:01:13;;;;;;;10.10;5.80;;;17.60;99.90;;;;;;5043003;28;20207;-70
2022/08/12 06:03:41;;;;;;;8.52;5.68;;;17.60;99.90;;;;;;5049953;28;20651;-70
2022/08/12 06:06:09;;;;;;;7.55;5.00;;;17.50;99.90;;;;;;5046179;28;20567;-70
2022/08/12 06:08:36;;;;;;;8.52;5.95;;;17.70;99.90;;;;;;5045797;28;20199;-70
2022/08/12 06:11:03;;;;;;;10.82;5.55;;;17.80;99.90;;;;;;5044328;28;20550;-70
2022/08/12 06:13:31;;;;;;;9.55;5.85;;;18.00;99.90;;;;;;5045833;28;20640;-70
2022/08/12 06:15:59;;;;;;;13.43;6.57;;;18.20;99.90;;;;;;5042124;28;20215;-70
2022/08/12 06:18:25;;;;;;;9.90;6.35;;;18.40;99.90;;;;;;5041853;28;20196;-70
2022/08/12 06:20:57;;;;;;;9.05;6.55;;;18.50;99.90;;;;;;5046633;28;20634;-70
2022/08/12 06:23:27;;;;;;;13.85;6.80;;;18.70;99.90;;;;;;5046639;28;20762;-70
2022/08/12 06:25:54;;;;;;;10.30;6.20;;;18.80;99.90;;;;;;5045131;28;20202;-70
2022/08/12 06:28:21;;;;;;;18.55;6.65;;;18.90;99.90;;;;;;5046754;28;20199;-70
2022/08/12 06:30:49;;;;;;;12.13;6.07;;;18.90;99.90;;;;;;5049461;28;20198;-70
2022/08/12 06:33:17;;;;;;;10.30;5.50;;;19.10;93.00;;;;;;5048559;28;20614;-70
2022/08/12 06:35:44;;;;;;;10.65;5.38;;;19.20;90.40;;;;;;5050182;28;20223;-70
2022/08/12 06:38:15;;;;;;;11.32;5.68;;;19.40;84.90;;;;;;5046372;28;20199;-70
2022/08/12 06:43:29;;;;;;;21.65;6.28;;;19.60;83.50;;;;;;5044116;28;20312;-70
2022/08/12 06:45:57;;;;;;;13.82;6.30;;;19.70;82.80;;;;;;5048287;28;20202;-69
2022/08/12 06:48:25;;;;;;;13.10;5.53;;;19.80;86.50;;;;;;5049058;28;20206;-71
2022/08/12 06:50:52;;;;;;;10.35;5.72;;;20.20;78.00;;;;;;5043117;28;20210;-71
2022/08/12 06:53:19;;;;;;;12.88;6.22;;;20.30;75.00;;;;;;5053309;28;20202;-71
2022/08/12 06:55:48;;;;;;;13.75;5.45;;;20.50;71.00;;;;;;5040669;28;20219;-71
2022/08/12 06:58:15;;;;;;;12.48;5.95;;;20.60;67.50;;;;;;5048916;28;20205;-71
2022/08/12 07:00:45;;;;;;;19.30;6.07;;;20.90;64.70;;;;;;5039732;28;20298;-71
2022/08/12 07:03:16;;;;;;;16.30;6.05;;;20.90;58.60;;;;;;5046620;28;20199;-71
2022/08/12 07:05:43;;;;;;;12.52;5.20;;;21.10;59.20;;;;;;5047489;28;20569;-71
2022/08/12 07:08:11;;;;;;;13.02;5.60;;;21.30;54.70;;;;;;5048211;28;20225;-70
2022/08/12 07:10:43;;;;;;;9.52;5.00;;;21.70;49.70;;;;;;5044574;28;20215;-72
2022/08/12 07:13:11;;;;;;;9.90;5.13;;;21.70;44.80;;;;;;5044562;28;20211;-72
2022/08/12 07:15:41;;;;;;;16.85;4.95;;;21.80;44.10;;;;;;5045396;28;20729;-72
2022/08/12 07:18:14;;;;;;;10.38;5.07;;;22.00;39.90;;;;;;5042870;28;20557;-69
2022/08/12 07:20:43;;;;;;;20.25;6.70;;;22.10;40.70;;;;;;5042351;28;20208;-68
2022/08/12 07:23:10;;;;;;;14.20;5.53;;;21.90;46.70;;;;;;5045500;28;20215;-69
2022/08/12 07:25:38;;;;;;;11.10;5.50;;;21.70;44.10;;;;;;5042017;28;20203;-68
2022/08/12 07:28:07;;;;;;;15.43;5.03;;;21.80;42.10;;;;;;5039657;28;20203;-68
2022/08/12 07:30:38;;;;;;;7.82;4.43;;;22.30;40.20;;;;;;5048879;28;20608;-68
2022/08/12 07:33:07;;;;;;;12.18;4.85;;;22.30;35.60;;;;;;5043651;28;20605;-68
2022/08/12 07:35:43;;;;;;;9.15;4.60;;;22.40;33.20;;;;;;5048439;28;20254;-68
2022/08/12 07:38:24;;;;;;;11.48;4.57;;;22.40;35.50;;;;;;5040346;28;20211;-68
2022/08/12 07:40:53;;;;;;;7.35;4.15;;;22.40;34.70;;;;;;5046643;28;20199;-68
2022/08/12 07:43:20;;;;;;;18.23;5.38;;;22.50;33.40;;;;;;5044818;28;20207;-68
2022/08/12 07:45:49;;;;;;;7.97;4.05;;;22.50;35.40;;;;;;5044289;28;20205;-68
2022/08/12 07:48:16;;;;;;;11.27;4.45;;;22.60;35.20;;;;;;5043076;28;20195;-68
2022/08/12 07:50:43;;;;;;;4.85;3.95;;;22.70;34.00;;;;;;5042481;28;20200;-68
2022/08/12 07:53:10;;;;;;;6.13;4.25;;;22.80;33.30;;;;;;5050083;28;20206;-68
2022/08/12 07:55:37;;;;;;;8.38;4.03;;;23.00;31.60;;;;;;5039629;28;20215;-71
2022/08/12 07:58:04;;;;;;;9.52;4.05;;;23.20;31.00;;;;;;5044970;28;20203;-72
2022/08/12 08:00:33;;;;;;;6.40;4.60;;;23.30;31.90;;;;;;5037715;28;20240;-71
2022/08/12 08:03:02;;;;;;;7.57;4.53;;;23.30;27.80;;;;;;5043086;28;20194;-72
2022/08/12 08:05:35;;;;;;;6.53;4.28;;;23.30;28.00;;;;;;5045904;28;20196;-72
2022/08/12 08:08:11;;;;;;;7.10;4.20;;;23.50;24.90;;;;;;5046371;28;20209;-72
2022/08/12 08:10:38;;;;;;;4.20;3.70;;;23.50;26.00;;;;;;5035074;28;20199;-72
2022/08/12 08:13:05;;;;;;;9.52;4.40;;;23.70;25.60;;;;;;5042468;28;20199;-72
2022/08/12 08:15:34;;;;;;;6.85;4.35;;;23.80;23.50;;;;;;5043898;28;20242;-72
2022/08/12 08:18:06;;;;;;;5.75;3.60;;;23.90;24.90;;;;;;5045179;28;20674;-72
2022/08/12 08:20:36;;;;;;;6.18;3.40;;;24.10;23.90;;;;;;5042842;28;20658;-72
2022/08/12 08:23:06;;;;;;;10.05;4.55;;;24.40;20.80;;;;;;5041692;28;20195;-72
2022/08/12 08:25:37;;;;;;;8.00;3.90;;;24.20;20.70;;;;;;5041595;28;20196;-72
2022/08/12 08:28:06;;;;;;;6.43;3.55;;;24.10;20.50;;;;;;5038075;28;20207;-72
2022/08/12 08:30:37;;;;;;;8.00;3.30;;;24.50;19.90;;;;;;5046548;28;20199;-72
2022/08/12 08:33:08;;;;;;;10.90;3.67;;;24.60;17.00;;;;;;5042492;28;20196;-72
2022/08/12 08:35:35;;;;;;;8.32;3.70;;;25.00;17.80;;;;;;5047751;28;20261;-72
2022/08/12 08:38:09;;;;;;;7.22;3.72;;;24.80;16.70;;;;;;5046766;28;20581;-72
2022/08/12 08:43:22;;;;;;;7.70;3.33;;;25.20;15.80;;;;;;5044435;28;20205;-72
2022/08/12 08:45:49;;;;;;;8.82;3.20;;;25.30;17.40;;;;;;5039626;28;20199;-72
2022/08/12 08:48:17;;;;;;;5.68;3.80;;;25.40;18.20;;;;;;5043341;28;20587;-72
2022/08/12 08:50:44;;;;;;;4.00;3.00;;;25.50;16.40;;;;;;5046355;28;20203;-72
2022/08/12 08:53:11;;;;;;;5.60;2.78;;;25.80;13.70;;;;;;5044887;28;20203;-72
2022/08/12 08:55:41;;;;;;;7.55;2.95;;;25.80;15.10;;;;;;5044168;28;20579;-71
2022/08/12 08:58:08;;;;;;;4.65;2.72;;;25.60;14.20;;;;;;5044050;28;20211;-72
2022/08/12 09:00:37;;;;;;;4.55;3.00;;;25.90;12.80;;;;;;5045641;28;20233;-72
2022/08/12 09:03:04;;;;;;;4.25;3.20;;;26.00;12.70;;;;;;5047190;28;20202;-72
2022/08/12 09:05:33;;;;;;;3.30;2.70;;;26.20;13.70;;;;;;5043144;28;20653;-72
2022/08/12 09:08:01;;;;;;;4.47;2.03;;;26.50;2.10;;;;;;5044715;28;20210;-72
2022/08/12 09:10:29;;;;;;;2.83;2.38;;;26.60;1.00;;;;;;5040061;28;20206;-72
2022/08/12 09:15:41;;;;;;;4.85;2.47;;;27.50;1.00;;;;;;5042122;28;20755;-72
2022/08/12 09:18:10;;;;;;;2.47;2.28;;;27.60;1.00;;;;;;5041053;28;20235;-72
2022/08/12 09:20:40;;;;;;;2.28;2.05;;;27.70;1.00;;;;;;5044631;28;20734;-72
2022/08/12 09:23:09;;;;;;;9.80;2.72;;;27.90;1.00;;;;;;5042302;28;20196;-72
2022/08/12 09:25:37;;;;;;;3.75;2.20;;;27.90;1.00;;;;;;5051722;28;20565;-72
2022/08/12 09:28:04;;;;;;;3.47;2.20;;;28.00;1.00;;;;;;5048467;28;20203;-73
2022/08/12 09:30:32;;;;;;;4.07;2.60;;;28.40;1.00;;;;;;5050834;28;20210;-73
2022/08/12 09:32:58;;;;;;;2.53;2.28;;;28.50;1.00;;;;;;5044752;28;20207;-73
2022/08/12 09:35:30;;;;;;;5.80;2.60;;;28.70;1.00;;;;;;5047807;28;20219;-72
2022/08/12 09:37:59;;;;;;;4.18;2.15;;;29.20;1.00;;;;;;5045233;28;20199;-73
2022/08/12 09:40:26;;;;;;;2.75;2.20;;;29.10;1.00;;;;;;5045865;28;20200;-73
2022/08/12 09:45:40;;;;;;;2.97;2.20;;;29.40;1.00;;;;;;5049569;28;20577;-70
2022/08/12 09:48:07;;;;;;;7.00;2.60;;;29.00;1.00;;;;;;5042095;28;20202;-70
2022/08/12 09:50:35;;;;;;;6.85;2.00;;;28.90;1.00;;;;;;5045233;28;20654;-70
2022/08/12 09:53:09;;;;;;;2.63;2.30;;;29.10;1.00;;;;;;5049086;28;20211;-70
2022/08/12 09:55:38;;;;;;;2.63;2.20;;;29.30;1.00;;;;;;5040770;28;20224;-70
2022/08/12 09:58:05;;;;;;;3.25;2.60;;;29.10;1.00;;;;;;5046775;28;20280;-71
2022/08/12 10:00:33;;;;;;;2.58;2.10;;;29.30;1.00;;;;;;5040106;28;20212;-71
2022/08/12 10:03:07;;;;;;;2.40;2.13;;;29.50;1.00;;;;;;5054851;28;20206;-70
2022/08/12 10:05:38;;;;;;;3.13;2.50;;;29.40;1.00;;;;;;5052408;28;20234;-71
2022/08/12 10:08:09;;;;;;;5.88;2.97;;;29.50;1.00;;;;;;5040816;28;20199;-70
2022/08/12 10:13:40;;;;;;;7.65;2.60;;;29.10;1.00;;;;;;5035285;28;20274;-70
2022/08/12 10:13:40;;;;;;;2.92;2.50;;;29.40;1.00;;;;;;5035431;28;20246;-70
2022/08/12 10:16:10;;;;;;;2.97;2.60;;;29.30;1.00;;;;;;5035033;28;20689;-70
2022/08/12 10:18:38;;;;;;;4.55;2.58;;;29.20;1.00;;;;;;5034874;28;20205;-70
2022/08/12 10:21:07;;;;;;;5.20;2.55;;;29.90;1.00;;;;;;5034909;28;20203;-70
2022/08/12 10:23:35;;;;;;;5.05;2.50;;;30.30;1.00;;;;;;5035029;28;20203;-71
2022/08/12 10:31:31;;;;;;;4.90;2.45;;;29.80;1.00;;;;;;5034386;28;20203;-73
2022/08/12 10:33:58;;;;;;;2.47;2.20;;;30.00;1.00;;;;;;5034814;28;20678;-73
2022/08/12 10:36:25;;;;;;;5.05;2.50;;;30.40;1.00;;;;;;5034783;28;20326;-73
2022/08/12 10:38:53;;;;;;;4.13;2.60;;;30.80;1.00;;;;;;5034618;28;20299;-70
2022/08/12 10:44:05;;;;;;;4.15;2.22;;;29.90;1.00;;;;;;5034735;28;20289;-70
2022/08/12 10:46:34;;;;;;;5.60;2.58;;;29.70;1.00;;;;;;5043266;28;20286;-71
2022/08/12 10:49:00;;;;;;;4.85;2.40;;;29.90;1.00;;;;;;5054315;28;20632;-70
2022/08/12 10:51:29;;;;;;;3.55;2.55;;;29.70;1.00;;;;;;5053980;28;20201;-70
2022/08/12 10:53:57;;;;;;;3.03;2.53;;;29.60;1.00;;;;;;5054222;28;20206;-71
2022/08/12 10:56:24;;;;;;;5.15;2.45;;;29.70;1.00;;;;;;5036144;28;20238;-70
2022/08/12 10:58:54;;;;;;;3.38;2.15;;;29.90;1.00;;;;;;5034467;28;20218;-70
2022/08/12 11:01:22;;;;;;;3.53;2.35;;;29.70;1.00;;;;;;5043127;28;20206;-70
2022/08/12 11:03:49;;;;;;;3.67;2.20;;;29.40;1.00;;;;;;5066617;28;20583;-72
2022/08/12 11:06:20;;;;;;;2.90;2.40;;;29.30;1.00;;;;;;5074100;28;20194;-73
2022/08/12 11:08:48;;;;;;;6.07;2.50;;;29.70;1.00;;;;;;5058638;28;20618;-72
2022/08/12 11:11:19;;;;;;;5.63;2.13;;;29.80;1.00;;;;;;5042161;28;20661;-73
2022/08/12 11:13:46;;;;;;;3.70;2.28;;;29.90;1.00;;;;;;5054029;28;20252;-70
2022/08/12 11:16:16;;;;;;;3.15;2.40;;;30.60;1.00;;;;;;5053919;28;20222;-71
2022/08/12 11:18:43;;;;;;;4.45;2.28;;;30.20;1.00;;;;;;5059058;28;20191;-70
2022/08/12 11:21:10;;;;;;;2.67;2.20;;;30.00;1.00;;;;;;5066537;28;20202;-78
2022/08/12 11:23:36;;;;;;;4.40;2.65;;;30.00;1.00;;;;;;5056320;28;20195;-71
2022/08/12 11:26:04;;;;;;;4.38;2.40;;;30.00;1.00;;;;;;5052839;28;20642;-70
2022/08/12 11:28:34;;;;;;;4.28;2.40;;;30.20;1.00;;;;;;5034633;28;20215;-70
2022/08/12 11:31:00;;;;;;;4.97;2.42;;;30.20;1.00;;;;;;5033678;28;20210;-71
2022/08/12 11:33:27;;;;;;;4.68;2.13;;;29.90;1.00;;;;;;5043956;28;20199;-70
2022/08/12 11:35:54;;;;;;;6.20;2.28;;;29.90;1.00;;;;;;5038791;28;20235;-71
2022/08/12 11:38:21;;;;;;;3.20;2.40;;;29.90;1.00;;;;;;5033697;28;20199;-70
2022/08/12 11:40:48;;;;;;;3.05;2.35;;;30.30;1.00;;;;;;5033180;28;20203;-70
2022/08/12 11:43:15;;;;;;;4.40;2.22;;;29.90;1.00;;;;;;5032743;28;20203;-71
2022/08/12 11:45:43;;;;;;;4.43;2.22;;;30.10;1.00;;;;;;5033280;28;20662;-70
2022/08/12 11:48:10;;;;;;;3.08;2.10;;;30.00;1.00;;;;;;5033514;28;20204;-71
2022/08/12 11:50:36;;;;;;;4.15;2.45;;;30.10;1.00;;;;;;5033478;28;20651;-71
2022/08/12 11:53:03;;;;;;;2.90;1.92;;;29.70;1.00;;;;;;5033424;28;20230;-71
2022/08/12 11:55:31;;;;;;;3.20;2.35;;;30.10;1.00;;;;;;5033189;28;20204;-71
2022/08/12 11:57:58;;;;;;;4.85;2.55;;;30.80;1.00;;;;;;5033240;28;20269;-71
2022/08/12 12:00:26;;;;;;;2.90;2.50;;;30.40;1.00;;;;;;5032999;28;20220;-71
2022/08/12 12:02:54;;;;;;;2.58;2.38;;;30.90;1.00;;;;;;5033075;28;20542;-71
2022/08/12 12:05:21;;;;;;;5.88;2.65;;;30.60;1.00;;;;;;5033328;28;20203;-71
2022/08/12 12:07:47;;;;;;;8.55;2.80;;;31.20;1.00;;;;;;5032884;28;20204;-71
2022/08/12 12:10:18;;;;;;;2.70;2.30;;;30.50;1.00;;;;;;5032938;28;20227;-71
2022/08/12 12:12:45;;;;;;;3.30;2.40;;;31.40;1.00;;;;;;5032941;28;20207;-71
2022/08/12 12:15:12;;;;;;;4.18;1.88;;;31.00;1.00;;;;;;5033013;28;20211;-71
2022/08/12 12:17:41;;;;;;;5.30;2.20;;;30.10;1.00;;;;;;5033067;28;20220;-71
2022/08/12 12:20:11;;;;;;;4.53;2.50;;;30.20;1.00;;;;;;5035798;28;20213;-71
2022/08/12 12:22:39;;;;;;;2.53;2.33;;;30.10;1.00;;;;;;5050046;28;20282;-70
2022/08/12 12:25:07;;;;;;;3.50;2.10;;;30.00;1.00;;;;;;5052514;28;20216;-71
2022/08/12 12:27:51;;;;;;;2.47;2.20;;;30.30;1.00;;;;;;5056622;28;20202;-71
2022/08/12 12:30:19;;;;;;;2.42;2.22;;;30.20;1.00;;;;;;5060359;28;20194;-71
2022/08/12 12:32:46;;;;;;;3.28;1.90;;;30.20;1.00;;;;;;5064033;28;20565;-71
2022/08/12 12:35:14;;;;;;;4.32;2.25;;;30.20;1.00;;;;;;5072622;28;20229;-70
2022/08/12 12:37:54;;;;;;;2.35;2.15;;;30.60;1.00;;;;;;5072333;28;20229;-70
2022/08/12 12:40:22;;;;;;;3.60;2.60;;;30.20;1.00;;;;;;5072319;28;20572;-70
2022/08/12 12:42:49;;;;;;;5.50;2.22;;;30.10;1.00;;;;;;5066658;28;20203;-70
2022/08/12 12:45:16;;;;;;;2.55;2.10;;;30.50;1.00;;;;;;5048611;28;20215;-70
2022/08/12 12:47:57;;;;;;;7.00;2.20;;;30.10;1.00;;;;;;5033081;28;20206;-71
2022/08/12 12:50:27;;;;;;;19.20;3.63;;;30.40;1.00;;;;;;5032217;28;20206;-71
2022/08/12 12:52:54;;;;;;;2.58;2.33;;;30.50;1.00;;;;;;5032303;28;20203;-71
2022/08/12 12:55:21;;;;;;;3.78;2.17;;;30.30;1.00;;;;;;5032506;28;20558;-71
2022/08/12 12:57:49;;;;;;;2.42;2.22;;;29.90;1.00;;;;;;5032361;28;20705;-71
2022/08/12 13:00:18;;;;;;;3.97;2.28;;;30.30;1.00;;;;;;5032349;28;20642;-71
2022/08/12 13:02:51;;;;;;;5.75;2.03;;;30.10;1.00;;;;;;5032313;28;20199;-70
2022/08/12 13:05:19;;;;;;;2.00;1.80;;;30.10;1.00;;;;;;5032056;28;20242;-71
2022/08/12 13:07:48;;;;;;;2.05;1.95;;;30.40;1.00;;;;;;5031874;28;20199;-70
2022/08/12 13:10:15;;;;;;;3.10;2.30;;;30.40;1.00;;;;;;5035041;28;20207;-70
2022/08/12 13:12:42;;;;;;;2.58;1.92;;;30.50;1.00;;;;;;5062376;28;20194;-71
2022/08/12 13:15:14;;;;;;;4.78;2.35;;;30.70;1.00;;;;;;5061905;28;20199;-70
2022/08/12 13:17:43;;;;;;;3.92;2.35;;;30.50;1.00;;;;;;5032083;28;20705;-71
2022/08/12 13:20:12;;;;;;;5.53;2.20;;;30.60;1.00;;;;;;5031803;28;20215;-71
2022/08/12 13:22:39;;;;;;;5.10;2.20;;;30.10;1.00;;;;;;5031581;28;20200;-71
2022/08/12 13:25:08;;;;;;;2.83;2.25;;;30.20;1.00;;;;;;5032194;28;20575;-71
2022/08/12 13:27:40;;;;;;;2.58;1.63;;;30.20;1.00;;;;;;5032104;28;20662;-71
2022/08/12 13:30:11;;;;;;;5.68;2.25;;;30.00;1.00;;;;;;5031827;28;20204;-71
2022/08/12 13:32:38;;;;;;;4.25;2.05;;;29.90;1.00;;;;;;5032257;28;20203;-70
2022/08/12 13:35:05;;;;;;;4.40;2.40;;;30.00;1.00;;;;;;5032402;28;20226;-70
2022/08/12 13:37:32;;;;;;;4.20;2.03;;;30.00;1.00;;;;;;5032079;28;20674;-71
2022/08/12 13:39:59;;;;;;;2.90;2.50;;;30.00;1.00;;;;;;5031702;28;20210;-70
2022/08/12 13:42:27;;;;;;;3.65;1.83;;;30.30;1.00;;;;;;5032029;28;20576;-70
2022/08/12 13:44:54;;;;;;;5.03;2.03;;;30.10;1.00;;;;;;5031672;28;20210;-71
2022/08/12 13:47:21;;;;;;;5.13;2.20;;;30.70;1.00;;;;;;5031947;28;20203;-70
2022/08/12 13:49:50;;;;;;;4.43;2.00;;;30.70;1.00;;;;;;5032107;28;20600;-70
2022/08/12 13:52:17;;;;;;;2.25;1.92;;;30.50;1.00;;;;;;5047408;28;20207;-71
2022/08/12 13:54:46;;;;;;;2.30;1.98;;;30.20;1.00;;;;;;5051623;28;20572;-71
2022/08/12 13:57:14;;;;;;;3.42;2.15;;;30.10;1.00;;;;;;5051538;28;20218;-70
2022/08/12 13:59:43;;;;;;;3.33;1.80;;;30.30;1.00;;;;;;5038782;28;20294;-70
2022/08/12 14:02:12;;;;;;;2.13;1.92;;;30.80;1.00;;;;;;5031641;28;20200;-70
2022/08/12 14:04:39;;;;;;;1.92;1.63;;;31.20;1.00;;;;;;5032189;28;20199;-70
2022/08/12 14:07:06;;;;;;;3.63;2.00;;;30.30;1.00;;;;;;5035401;28;20210;-70
2022/08/12 14:10:34;;;;;;;4.32;1.85;;;30.10;1.00;;;;;;5035114;28;20650;-70
2022/08/12 14:12:20;;;;;;;2.38;2.13;;;29.90;1.00;;;;;;5035086;28;20239;-70
2022/08/12 14:14:49;;;;;;;3.10;1.98;;;30.10;1.00;;;;;;5035332;28;20238;-70
2022/08/12 14:17:17;;;;;;;3.53;1.90;;;29.90;1.00;;;;;;5035039;28;20224;-70
2022/08/12 14:20:12;;;;;;;2.65;2.05;;;29.90;1.00;;;;;;5035208;28;20557;-70
2022/08/12 14:22:34;;;;;;;4.15;1.80;;;30.10;1.00;;;;;;5035114;28;20603;-70
2022/08/12 14:25:01;;;;;;;3.30;1.65;;;30.30;1.00;;;;;;5034184;28;20204;-70
2022/08/12 14:27:28;;;;;;;3.58;2.00;;;30.00;1.00;;;;;;5035004;28;20200;-71
2022/08/12 14:29:57;;;;;;;1.95;1.85;;;30.20;1.00;;;;;;5034699;28;20550;-71
2022/08/12 14:32:24;;;;;;;5.07;1.80;;;29.80;1.00;;;;;;5034776;28;20222;-71
2022/08/12 14:34:52;;;;;;;4.85;1.98;;;30.10;1.00;;;;;;5034748;28;20647;-70
2022/08/12 14:37:21;;;;;;;4.28;1.85;;;30.10;1.00;;;;;;5035103;28;20224;-70
2022/08/12 14:39:48;;;;;;;6.70;1.88;;;30.10;1.00;;;;;;5034500;28;20204;-70
2022/08/12 14:42:16;;;;;;;5.60;1.80;;;30.20;1.00;;;;;;5034771;28;20214;-70
2022/08/12 14:44:43;;;;;;;7.28;2.00;;;30.50;1.00;;;;;;5034662;28;20574;-71